sensor_id;sensor_type;location;lat;lon;timestamp;pressure;altitude;pressure_sealevel;temperature;humidity
31357;BME280;60001;48.404;11.738;2024-03-22T00:01:00;96982.25;;;9.00;80.71
31357;BME280;60001;48.404;11.738;2024-03-22T00:02:32;96989.69;;;9.03;80.88
31357;BME280;60001;48.404;11.738;2024-03-22T00:04:03;96988.53;;;8.99;80.82
31357;BME280;60001;48.404;11.738;2024-03-22T00:05:34;96990.28;;;9.05;80.76
31357;BME280;60001;48.404;11.738;2024-03-22T00:07:07;96992.78;;;9.00;80.95
31357;BME280;60001;48.404;11.738;2024-03-22T00:08:38;96992.88;;;8.94;80.95
31357;BME280;60001;48.404;11.738;2024-03-22T00:10:10;96988.63;;;8.93;81.21
31357;BME280;60001;48.404;11.738;2024-03-22T00:11:42;96985.78;;;8.94;80.87
31357;BME280;60001;48.404;11.738;2024-03-22T00:13:14;96985.78;;;8.94;81.03
31357;BME280;60001;48.404;11.738;2024-03-22T00:14:45;96973.97;;;8.85;80.84
31357;BME280;60001;48.404;11.738;2024-03-22T00:16:16;96985.44;;;8.91;81.06
31357;BME280;60001;48.404;11.738;2024-03-22T00:17:48;96955.13;;;8.70;80.73
31357;BME280;60001;48.404;11.738;2024-03-22T00:19:19;96973.09;;;8.73;81.39
31357;BME280;60001;48.404;11.738;2024-03-22T00:20:50;96982.28;;;8.82;80.96
31357;BME280;60001;48.404;11.738;2024-03-22T00:22:23;96982.53;;;8.81;81.07
31357;BME280;60001;48.404;11.738;2024-03-22T00:23:54;96974.00;;;8.67;81.22
31357;BME280;60001;48.404;11.738;2024-03-22T00:25:25;96985.25;;;8.74;81.51
31357;BME280;60001;48.404;11.738;2024-03-22T00:26:57;96941.59;;;8.36;81.28
31357;BME280;60001;48.404;11.738;2024-03-22T00:28:28;96992.25;;;8.80;80.89
31357;BME280;60001;48.404;11.738;2024-03-22T00:29:59;96984.25;;;8.87;80.65
31357;BME280;60001;48.404;11.738;2024-03-22T00:31:32;96986.25;;;8.91;80.36
31357;BME280;60001;48.404;11.738;2024-03-22T00:33:03;96982.75;;;8.79;80.91
31357;BME280;60001;48.404;11.738;2024-03-22T00:34:34;96970.78;;;8.65;81.19
31357;BME280;60001;48.404;11.738;2024-03-22T00:36:07;96978.03;;;8.69;80.76
31357;BME280;60001;48.404;11.738;2024-03-22T00:37:40;96974.13;;;8.72;80.85
31357;BME280;60001;48.404;11.738;2024-03-22T00:39:12;96977.19;;;8.69;80.85
31357;BME280;60001;48.404;11.738;2024-03-22T00:40:43;96977.88;;;8.64;80.78
31357;BME280;60001;48.404;11.738;2024-03-22T00:42:14;96974.66;;;8.62;81.21
31357;BME280;60001;48.404;11.738;2024-03-22T00:43:46;96974.44;;;8.64;81.04
31357;BME280;60001;48.404;11.738;2024-03-22T00:45:16;96978.31;;;8.61;81.16
31357;BME280;60001;48.404;11.738;2024-03-22T00:46:47;96985.88;;;8.58;81.75
31357;BME280;60001;48.404;11.738;2024-03-22T00:48:19;96974.31;;;8.59;81.37
31357;BME280;60001;48.404;11.738;2024-03-22T00:49:50;96967.75;;;8.49;81.04
31357;BME280;60001;48.404;11.738;2024-03-22T00:51:21;96973.03;;;8.61;80.89
31357;BME280;60001;48.404;11.738;2024-03-22T00:52:54;96965.38;;;8.60;80.89
31357;BME280;60001;48.404;11.738;2024-03-22T00:54:26;96968.25;;;8.58;81.17
31357;BME280;60001;48.404;11.738;2024-03-22T00:55:57;96967.88;;;8.55;81.01
31357;BME280;60001;48.404;11.738;2024-03-22T00:57:30;96966.97;;;8.61;81.23
31357;BME280;60001;48.404;11.738;2024-03-22T00:59:01;96966.03;;;8.55;81.30
31357;BME280;60001;48.404;11.738;2024-03-22T01:00:33;96962.16;;;8.58;81.35
31357;BME280;60001;48.404;11.738;2024-03-22T01:02:04;96960.78;;;8.55;81.55
31357;BME280;60001;48.404;11.738;2024-03-22T01:03:35;96951.91;;;8.68;80.92
31357;BME280;60001;48.404;11.738;2024-03-22T01:05:07;96958.66;;;8.64;80.56
31357;BME280;60001;48.404;11.738;2024-03-22T01:06:38;96957.47;;;8.60;80.76
31357;BME280;60001;48.404;11.738;2024-03-22T01:08:11;96960.13;;;8.60;80.64
31357;BME280;60001;48.404;11.738;2024-03-22T01:09:43;96956.50;;;8.42;81.40
31357;BME280;60001;48.404;11.738;2024-03-22T01:11:15;96946.41;;;8.39;81.41
31357;BME280;60001;48.404;11.738;2024-03-22T01:12:46;96954.22;;;8.46;81.15
31357;BME280;60001;48.404;11.738;2024-03-22T01:14:18;96951.81;;;8.44;81.28
31357;BME280;60001;48.404;11.738;2024-03-22T01:15:48;96924.78;;;8.37;80.65
31357;BME280;60001;48.404;11.738;2024-03-22T01:17:19;96943.03;;;8.50;80.77
31357;BME280;60001;48.404;11.738;2024-03-22T01:18:51;96939.59;;;8.50;80.59
31357;BME280;60001;48.404;11.738;2024-03-22T01:20:22;96920.53;;;8.18;81.16
31357;BME280;60001;48.404;11.738;2024-03-22T01:21:53;96937.19;;;8.30;81.20
31357;BME280;60001;48.404;11.738;2024-03-22T01:23:26;96907.03;;;8.14;81.25
31357;BME280;60001;48.404;11.738;2024-03-22T01:24:57;96934.31;;;8.32;81.43
31357;BME280;60001;48.404;11.738;2024-03-22T01:26:28;96936.72;;;8.33;81.27
31357;BME280;60001;48.404;11.738;2024-03-22T01:28:00;96940.34;;;8.39;80.71
31357;BME280;60001;48.404;11.738;2024-03-22T01:29:30;96938.28;;;8.41;80.68
31357;BME280;60001;48.404;11.738;2024-03-22T01:31:02;96934.41;;;8.43;80.75
31357;BME280;60001;48.404;11.738;2024-03-22T01:32:34;96905.13;;;8.03;81.21
31357;BME280;60001;48.404;11.738;2024-03-22T01:34:06;96927.53;;;8.24;81.26
31357;BME280;60001;48.404;11.738;2024-03-22T01:35:37;96911.97;;;8.04;81.34
31357;BME280;60001;48.404;11.738;2024-03-22T01:37:08;96937.19;;;8.12;81.57
31357;BME280;60001;48.404;11.738;2024-03-22T01:38:41;96933.69;;;8.18;81.61
31357;BME280;60001;48.404;11.738;2024-03-22T01:40:13;96928.41;;;8.18;81.47
31357;BME280;60001;48.404;11.738;2024-03-22T01:41:44;96923.16;;;8.18;81.41
31357;BME280;60001;48.404;11.738;2024-03-22T01:43:15;96931.13;;;8.11;81.55
31357;BME280;60001;48.404;11.738;2024-03-22T01:44:49;96929.66;;;8.15;81.61
31357;BME280;60001;48.404;11.738;2024-03-22T01:46:20;96909.50;;;8.09;81.49
31357;BME280;60001;48.404;11.738;2024-03-22T01:47:52;96908.31;;;8.05;81.01
31357;BME280;60001;48.404;11.738;2024-03-22T01:49:25;96914.00;;;8.20;80.78
31357;BME280;60001;48.404;11.738;2024-03-22T01:50:56;96917.41;;;8.09;81.04
31357;BME280;60001;48.404;11.738;2024-03-22T01:52:28;96921.91;;;8.20;80.77
31357;BME280;60001;48.404;11.738;2024-03-22T01:54:03;96862.47;;;7.83;80.62
31357;BME280;60001;48.404;11.738;2024-03-22T01:55:35;96916.59;;;8.09;81.28
31357;BME280;60001;48.404;11.738;2024-03-22T01:57:07;96897.88;;;7.98;81.07
31357;BME280;60001;48.404;11.738;2024-03-22T01:58:39;96919.56;;;8.12;80.92
31357;BME280;60001;48.404;11.738;2024-03-22T02:00:11;96909.34;;;8.04;81.17
31357;BME280;60001;48.404;11.738;2024-03-22T02:01:42;96910.31;;;8.10;81.32
31357;BME280;60001;48.404;11.738;2024-03-22T02:03:13;96890.78;;;7.99;81.05
31357;BME280;60001;48.404;11.738;2024-03-22T02:04:45;96902.78;;;7.95;81.40
31357;BME280;60001;48.404;11.738;2024-03-22T02:06:16;96908.78;;;8.02;81.10
31357;BME280;60001;48.404;11.738;2024-03-22T02:07:47;96883.00;;;7.74;81.55
31357;BME280;60001;48.404;11.738;2024-03-22T02:09:21;96909.06;;;7.94;81.92
31357;BME280;60001;48.404;11.738;2024-03-22T02:10:52;96898.34;;;7.95;81.46
31357;BME280;60001;48.404;11.738;2024-03-22T02:12:23;96904.31;;;8.03;81.10
31357;BME280;60001;48.404;11.738;2024-03-22T02:13:55;96894.38;;;8.05;81.54
31357;BME280;60001;48.404;11.738;2024-03-22T02:15:26;96876.72;;;7.93;80.87
31357;BME280;60001;48.404;11.738;2024-03-22T02:16:57;96895.84;;;8.01;80.98
31357;BME280;60001;48.404;11.738;2024-03-22T02:18:28;96898.69;;;7.99;80.72
31357;BME280;60001;48.404;11.738;2024-03-22T02:20:00;96886.28;;;7.88;80.71
31357;BME280;60001;48.404;11.738;2024-03-22T02:21:31;96877.94;;;7.91;80.70
31357;BME280;60001;48.404;11.738;2024-03-22T02:23:03;96891.09;;;7.91;80.99
31357;BME280;60001;48.404;11.738;2024-03-22T02:24:35;96890.13;;;7.85;81.40
31357;BME280;60001;48.404;11.738;2024-03-22T02:26:07;96883.81;;;7.93;81.04
31357;BME280;60001;48.404;11.738;2024-03-22T02:27:39;96892.03;;;7.96;80.67
31357;BME280;60001;48.404;11.738;2024-03-22T02:29:10;96885.47;;;7.87;80.90
31357;BME280;60001;48.404;11.738;2024-03-22T02:30:42;96902.56;;;7.96;80.46
31357;BME280;60001;48.404;11.738;2024-03-22T02:32:13;96877.00;;;7.85;80.65
31357;BME280;60001;48.404;11.738;2024-03-22T02:33:44;96888.69;;;7.89;80.92
31357;BME280;60001;48.404;11.738;2024-03-22T02:35:16;96883.16;;;7.79;81.28
31357;BME280;60001;48.404;11.738;2024-03-22T02:36:46;96879.44;;;7.87;80.93
31357;BME280;60001;48.404;11.738;2024-03-22T02:38:18;96872.47;;;7.92;80.39
31357;BME280;60001;48.404;11.738;2024-03-22T02:39:51;96850.06;;;7.72;80.50
31357;BME280;60001;48.404;11.738;2024-03-22T02:41:22;96880.94;;;7.94;80.67
31357;BME280;60001;48.404;11.738;2024-03-22T02:42:53;96873.28;;;7.75;80.79
31357;BME280;60001;48.404;11.738;2024-03-22T02:44:25;96885.19;;;7.77;81.34
31357;BME280;60001;48.404;11.738;2024-03-22T02:45:56;96865.53;;;7.61;81.91
31357;BME280;60001;48.404;11.738;2024-03-22T02:47:26;96872.63;;;7.79;81.02
31357;BME280;60001;48.404;11.738;2024-03-22T02:48:58;96868.19;;;7.80;80.92
31357;BME280;60001;48.404;11.738;2024-03-22T02:50:32;96871.47;;;7.75;81.24
31357;BME280;60001;48.404;11.738;2024-03-22T02:52:04;96882.13;;;7.80;80.73
31357;BME280;60001;48.404;11.738;2024-03-22T02:53:36;96873.34;;;7.68;81.24
31357;BME280;60001;48.404;11.738;2024-03-22T02:55:08;96868.44;;;7.72;81.21
31357;BME280;60001;48.404;11.738;2024-03-22T02:56:40;96837.28;;;7.57;81.18
31357;BME280;60001;48.404;11.738;2024-03-22T02:58:11;96861.28;;;7.79;80.83
31357;BME280;60001;48.404;11.738;2024-03-22T02:59:42;96858.41;;;7.87;80.65
31357;BME280;60001;48.404;11.738;2024-03-22T03:01:13;96860.06;;;7.81;80.42
31357;BME280;60001;48.404;11.738;2024-03-22T03:02:45;96854.88;;;7.75;80.07
31357;BME280;60001;48.404;11.738;2024-03-22T03:04:15;96861.25;;;7.67;80.34
31357;BME280;60001;48.404;11.738;2024-03-22T03:05:47;96854.97;;;7.68;80.57
31357;BME280;60001;48.404;11.738;2024-03-22T03:07:18;96846.13;;;7.62;80.59
31357;BME280;60001;48.404;11.738;2024-03-22T03:08:49;96855.59;;;7.63;80.92
31357;BME280;60001;48.404;11.738;2024-03-22T03:10:23;96839.84;;;7.45;81.24
31357;BME280;60001;48.404;11.738;2024-03-22T03:11:53;96824.22;;;7.50;80.19
31357;BME280;60001;48.404;11.738;2024-03-22T03:13:24;96848.91;;;7.67;80.65
31357;BME280;60001;48.404;11.738;2024-03-22T03:14:56;96851.31;;;7.69;80.32
31357;BME280;60001;48.404;11.738;2024-03-22T03:16:27;96855.97;;;7.67;80.46
31357;BME280;60001;48.404;11.738;2024-03-22T03:17:58;96844.13;;;7.58;80.56
31357;BME280;60001;48.404;11.738;2024-03-22T03:19:30;96836.06;;;7.59;80.40
31357;BME280;60001;48.404;11.738;2024-03-22T03:21:00;96833.50;;;7.53;80.81
31357;BME280;60001;48.404;11.738;2024-03-22T03:22:32;96799.25;;;7.23;81.00
31357;BME280;60001;48.404;11.738;2024-03-22T03:24:04;96826.72;;;7.45;80.92
31357;BME280;60001;48.404;11.738;2024-03-22T03:25:37;96825.75;;;7.39;80.63
31357;BME280;60001;48.404;11.738;2024-03-22T03:27:09;96826.97;;;7.37;80.71
31357;BME280;60001;48.404;11.738;2024-03-22T03:28:40;96818.28;;;7.36;80.59
31357;BME280;60001;48.404;11.738;2024-03-22T03:30:12;96828.22;;;7.34;80.29
31357;BME280;60001;48.404;11.738;2024-03-22T03:31:42;96827.66;;;7.32;80.58
31357;BME280;60001;48.404;11.738;2024-03-22T03:33:13;96825.66;;;7.28;80.92
31357;BME280;60001;48.404;11.738;2024-03-22T03:34:45;96824.34;;;7.37;80.01
31357;BME280;60001;48.404;11.738;2024-03-22T03:36:16;96824.22;;;7.32;80.58
31357;BME280;60001;48.404;11.738;2024-03-22T03:37:47;96822.41;;;7.32;80.50
31357;BME280;60001;48.404;11.738;2024-03-22T03:39:19;96828.75;;;7.25;80.82
31357;BME280;60001;48.404;11.738;2024-03-22T03:40:51;96817.72;;;7.34;80.34
31357;BME280;60001;48.404;11.738;2024-03-22T03:42:22;96822.06;;;7.22;80.93
31357;BME280;60001;48.404;11.738;2024-03-22T03:43:54;96812.25;;;7.18;80.79
31357;BME280;60001;48.404;11.738;2024-03-22T03:45:25;96823.38;;;7.13;81.01
31357;BME280;60001;48.404;11.738;2024-03-22T03:46:56;96817.50;;;7.18;80.53
31357;BME280;60001;48.404;11.738;2024-03-22T03:48:27;96815.59;;;7.25;80.39
31357;BME280;60001;48.404;11.738;2024-03-22T03:49:58;96814.66;;;7.19;80.58
31357;BME280;60001;48.404;11.738;2024-03-22T03:51:30;96814.94;;;7.11;81.11
31357;BME280;60001;48.404;11.738;2024-03-22T03:53:02;96816.00;;;7.03;81.04
31357;BME280;60001;48.404;11.738;2024-03-22T03:54:33;96800.03;;;7.05;80.71
31357;BME280;60001;48.404;11.738;2024-03-22T03:56:06;96819.91;;;7.19;80.92
31357;BME280;60001;48.404;11.738;2024-03-22T03:57:37;96820.31;;;7.16;80.80
31357;BME280;60001;48.404;11.738;2024-03-22T03:59:09;96824.56;;;7.17;81.33
31357;BME280;60001;48.404;11.738;2024-03-22T04:00:40;96817.16;;;7.07;81.49
31357;BME280;60001;48.404;11.738;2024-03-22T04:02:10;96819.91;;;7.19;81.34
31357;BME280;60001;48.404;11.738;2024-03-22T04:03:42;96814.78;;;7.06;81.71
31357;BME280;60001;48.404;11.738;2024-03-22T04:05:13;96812.72;;;7.08;81.72
31357;BME280;60001;48.404;11.738;2024-03-22T04:06:44;96810.84;;;7.15;81.25
31357;BME280;60001;48.404;11.738;2024-03-22T04:08:16;96813.53;;;7.08;81.96
31357;BME280;60001;48.404;11.738;2024-03-22T04:09:47;96806.44;;;7.09;81.72
31357;BME280;60001;48.404;11.738;2024-03-22T04:11:19;96806.25;;;7.10;81.61
31357;BME280;60001;48.404;11.738;2024-03-22T04:12:51;96807.84;;;7.11;81.57
31357;BME280;60001;48.404;11.738;2024-03-22T04:14:22;96812.09;;;7.12;81.85
31357;BME280;60001;48.404;11.738;2024-03-22T04:15:53;96805.66;;;7.08;81.59
31357;BME280;60001;48.404;11.738;2024-03-22T04:17:25;96812.88;;;7.13;81.75
31357;BME280;60001;48.404;11.738;2024-03-22T04:18:56;96810.09;;;7.08;81.41
31357;BME280;60001;48.404;11.738;2024-03-22T04:20:27;96795.66;;;6.99;81.94
31357;BME280;60001;48.404;11.738;2024-03-22T04:21:59;96807.91;;;7.05;81.72
31357;BME280;60001;48.404;11.738;2024-03-22T04:23:30;96802.66;;;7.05;81.72
31357;BME280;60001;48.404;11.738;2024-03-22T04:25:01;96737.56;;;6.70;81.69
31357;BME280;60001;48.404;11.738;2024-03-22T04:26:35;96800.19;;;7.10;81.62
31357;BME280;60001;48.404;11.738;2024-03-22T04:28:06;96788.56;;;6.99;81.86
31357;BME280;60001;48.404;11.738;2024-03-22T04:29:37;96794.63;;;7.00;82.12
31357;BME280;60001;48.404;11.738;2024-03-22T04:31:09;96800.91;;;6.99;82.01
31357;BME280;60001;48.404;11.738;2024-03-22T04:32:40;96797.81;;;7.02;81.97
31357;BME280;60001;48.404;11.738;2024-03-22T04:34:11;96772.13;;;6.85;81.99
31357;BME280;60001;48.404;11.738;2024-03-22T04:35:45;96761.28;;;6.82;82.03
31357;BME280;60001;48.404;11.738;2024-03-22T04:37:16;96745.38;;;6.77;81.81
31357;BME280;60001;48.404;11.738;2024-03-22T04:38:48;96793.81;;;6.99;82.18
31357;BME280;60001;48.404;11.738;2024-03-22T04:40:19;96794.31;;;6.90;82.21
31357;BME280;60001;48.404;11.738;2024-03-22T04:41:52;96780.88;;;6.79;82.04
31357;BME280;60001;48.404;11.738;2024-03-22T04:43:23;96775.94;;;6.90;82.37
31357;BME280;60001;48.404;11.738;2024-03-22T04:44:54;96787.03;;;6.92;82.22
31357;BME280;60001;48.404;11.738;2024-03-22T04:46:28;96779.22;;;6.85;82.59
31357;BME280;60001;48.404;11.738;2024-03-22T04:48:00;96791.66;;;6.96;82.41
31357;BME280;60001;48.404;11.738;2024-03-22T04:49:33;96787.88;;;6.85;82.39
31357;BME280;60001;48.404;11.738;2024-03-22T04:51:04;96788.41;;;6.94;82.45
31357;BME280;60001;48.404;11.738;2024-03-22T04:52:36;96784.28;;;7.05;81.76
31357;BME280;60001;48.404;11.738;2024-03-22T04:54:07;96784.69;;;7.02;81.07
31357;BME280;60001;48.404;11.738;2024-03-22T04:55:38;96772.03;;;6.99;80.96
31357;BME280;60001;48.404;11.738;2024-03-22T04:57:16;96793.19;;;7.04;80.70
31357;BME280;60001;48.404;11.738;2024-03-22T04:58:47;96769.09;;;6.89;80.47
31357;BME280;60001;48.404;11.738;2024-03-22T05:00:19;96782.31;;;7.00;80.33
31357;BME280;60001;48.404;11.738;2024-03-22T05:01:50;96775.16;;;6.89;80.54
31357;BME280;60001;48.404;11.738;2024-03-22T05:03:21;96759.72;;;6.74;80.70
31357;BME280;60001;48.404;11.738;2024-03-22T05:04:52;96783.09;;;6.82;80.86
31357;BME280;60001;48.404;11.738;2024-03-22T05:06:23;96777.97;;;6.87;80.35
31357;BME280;60001;48.404;11.738;2024-03-22T05:07:55;96786.81;;;6.93;80.46
31357;BME280;60001;48.404;11.738;2024-03-22T05:09:26;96768.50;;;6.86;80.42
31357;BME280;60001;48.404;11.738;2024-03-22T05:10:56;96791.25;;;6.93;80.66
31357;BME280;60001;48.404;11.738;2024-03-22T05:12:30;96789.94;;;7.02;80.81
31357;BME280;60001;48.404;11.738;2024-03-22T05:14:00;96793.47;;;6.96;81.10
31357;BME280;60001;48.404;11.738;2024-03-22T05:15:33;96780.06;;;6.79;82.00
31357;BME280;60001;48.404;11.738;2024-03-22T05:17:05;96794.53;;;6.88;82.42
31357;BME280;60001;48.404;11.738;2024-03-22T05:18:36;96795.47;;;6.94;82.26
31357;BME280;60001;48.404;11.738;2024-03-22T05:20:07;96805.50;;;7.03;81.95
31357;BME280;60001;48.404;11.738;2024-03-22T05:21:41;96798.06;;;7.00;81.84
31357;BME280;60001;48.404;11.738;2024-03-22T05:23:12;96803.91;;;7.02;82.25
31357;BME280;60001;48.404;11.738;2024-03-22T05:24:42;96802.09;;;7.03;82.44
31357;BME280;60001;48.404;11.738;2024-03-22T05:26:14;96799.47;;;7.03;82.73
31357;BME280;60001;48.404;11.738;2024-03-22T05:27:46;96795.13;;;7.08;82.34
31357;BME280;60001;48.404;11.738;2024-03-22T05:29:17;96795.38;;;7.07;82.79
31357;BME280;60001;48.404;11.738;2024-03-22T05:30:49;96790.28;;;7.12;82.78
31357;BME280;60001;48.404;11.738;2024-03-22T05:32:20;96780.28;;;7.21;81.92
31357;BME280;60001;48.404;11.738;2024-03-22T05:33:51;96771.88;;;7.12;81.96
31357;BME280;60001;48.404;11.738;2024-03-22T05:35:22;96783.78;;;7.14;81.78
31357;BME280;60001;48.404;11.738;2024-03-22T05:36:54;96782.91;;;7.21;81.80
31357;BME280;60001;48.404;11.738;2024-03-22T05:38:25;96787.13;;;7.22;81.90
31357;BME280;60001;48.404;11.738;2024-03-22T05:39:56;96786.34;;;7.21;82.97
31357;BME280;60001;48.404;11.738;2024-03-22T05:41:27;96776.97;;;7.07;86.26
31357;BME280;60001;48.404;11.738;2024-03-22T05:43:00;96671.47;;;6.37;87.87
31357;BME280;60001;48.404;11.738;2024-03-22T05:44:33;96772.31;;;7.09;87.72
31357;BME280;60001;48.404;11.738;2024-03-22T05:46:04;96773.13;;;7.09;86.33
31357;BME280;60001;48.404;11.738;2024-03-22T05:47:34;96784.72;;;7.20;85.44
31357;BME280;60001;48.404;11.738;2024-03-22T05:49:08;96780.59;;;7.31;84.52
31357;BME280;60001;48.404;11.738;2024-03-22T05:50:38;96776.56;;;7.28;83.90
31357;BME280;60001;48.404;11.738;2024-03-22T05:52:09;96776.56;;;7.28;83.25
31357;BME280;60001;48.404;11.738;2024-03-22T05:53:42;96783.16;;;7.37;82.78
31357;BME280;60001;48.404;11.738;2024-03-22T05:55:13;96778.59;;;7.26;82.55
31357;BME280;60001;48.404;11.738;2024-03-22T05:56:44;96774.22;;;7.20;82.92
31357;BME280;60001;48.404;11.738;2024-03-22T05:58:17;96778.75;;;7.31;82.18
31357;BME280;60001;48.404;11.738;2024-03-22T05:59:48;96779.91;;;7.35;82.16
31357;BME280;60001;48.404;11.738;2024-03-22T06:01:20;96777.91;;;7.37;81.71
31357;BME280;60001;48.404;11.738;2024-03-22T06:02:51;96784.44;;;7.28;82.25
31357;BME280;60001;48.404;11.738;2024-03-22T06:04:22;96781.50;;;7.36;81.78
31357;BME280;60001;48.404;11.738;2024-03-22T06:05:54;96760.94;;;7.15;82.41
31357;BME280;60001;48.404;11.738;2024-03-22T06:07:25;96770.00;;;7.19;82.26
31357;BME280;60001;48.404;11.738;2024-03-22T06:08:57;96773.94;;;7.28;82.69
31357;BME280;60001;48.404;11.738;2024-03-22T06:10:30;96767.88;;;7.28;82.47
31357;BME280;60001;48.404;11.738;2024-03-22T06:12:04;96768.38;;;7.36;82.36
31357;BME280;60001;48.404;11.738;2024-03-22T06:13:37;96762.31;;;7.36;82.81
31357;BME280;60001;48.404;11.738;2024-03-22T06:15:08;96763.56;;;7.33;82.34
31357;BME280;60001;48.404;11.738;2024-03-22T06:16:41;96750.28;;;7.28;82.48
31357;BME280;60001;48.404;11.738;2024-03-22T06:18:12;96754.97;;;7.45;82.58
31357;BME280;60001;48.404;11.738;2024-03-22T06:19:42;96762.56;;;7.53;82.44
31357;BME280;60001;48.404;11.738;2024-03-22T06:21:14;96751.97;;;7.59;82.84
31357;BME280;60001;48.404;11.738;2024-03-22T06:22:45;96745.81;;;7.65;82.92
31357;BME280;60001;48.404;11.738;2024-03-22T06:24:16;96751.44;;;7.69;82.58
31357;BME280;60001;48.404;11.738;2024-03-22T06:25:51;96743.91;;;7.73;82.37
31357;BME280;60001;48.404;11.738;2024-03-22T06:27:22;96754.25;;;7.86;82.38
31357;BME280;60001;48.404;11.738;2024-03-22T06:28:54;96756.44;;;7.89;82.69
31357;BME280;60001;48.404;11.738;2024-03-22T06:30:26;96762.03;;;7.92;82.56
31357;BME280;60001;48.404;11.738;2024-03-22T06:31:57;96758.41;;;7.93;83.08
31357;BME280;60001;48.404;11.738;2024-03-22T06:33:28;96755.06;;;7.98;83.22
31357;BME280;60001;48.404;11.738;2024-03-22T06:35:00;96745.34;;;7.87;83.64
31357;BME280;60001;48.404;11.738;2024-03-22T06:36:31;96754.66;;;8.01;83.45
31357;BME280;60001;48.404;11.738;2024-03-22T06:38:03;96755.38;;;8.20;82.75
31357;BME280;60001;48.404;11.738;2024-03-22T06:39:35;96763.63;;;8.23;82.29
31357;BME280;60001;48.404;11.738;2024-03-22T06:41:06;96702.84;;;8.02;82.26
31357;BME280;60001;48.404;11.738;2024-03-22T06:42:38;96758.66;;;8.45;81.88
31357;BME280;60001;48.404;11.738;2024-03-22T06:44:10;96757.44;;;8.60;81.38
31357;BME280;60001;48.404;11.738;2024-03-22T06:45:42;96760.75;;;8.67;81.61
31357;BME280;60001;48.404;11.738;2024-03-22T06:47:14;96756.41;;;8.72;81.13
31357;BME280;60001;48.404;11.738;2024-03-22T06:48:45;96763.16;;;8.80;81.25
31357;BME280;60001;48.404;11.738;2024-03-22T06:50:17;96760.19;;;8.88;80.85
31357;BME280;60001;48.404;11.738;2024-03-22T06:51:49;96767.41;;;8.93;81.35
31357;BME280;60001;48.404;11.738;2024-03-22T06:53:20;96772.56;;;8.99;81.25
31357;BME280;60001;48.404;11.738;2024-03-22T06:54:52;96761.09;;;9.05;81.19
31357;BME280;60001;48.404;11.738;2024-03-22T06:56:33;96764.06;;;9.09;80.69
31357;BME280;60001;48.404;11.738;2024-03-22T06:58:05;96755.81;;;9.17;80.70
31357;BME280;60001;48.404;11.738;2024-03-22T06:59:37;96756.97;;;9.21;81.42
31357;BME280;60001;48.404;11.738;2024-03-22T07:01:08;96757.06;;;9.26;81.91
31357;BME280;60001;48.404;11.738;2024-03-22T07:02:40;96766.09;;;9.42;81.67
31357;BME280;60001;48.404;11.738;2024-03-22T07:04:11;96762.28;;;9.50;81.88
31357;BME280;60001;48.404;11.738;2024-03-22T07:05:42;96763.31;;;9.60;81.12
31357;BME280;60001;48.404;11.738;2024-03-22T07:07:13;96760.53;;;9.67;80.87
31357;BME280;60001;48.404;11.738;2024-03-22T07:08:44;96763.38;;;9.66;80.65
31357;BME280;60001;48.404;11.738;2024-03-22T07:10:16;96766.13;;;9.71;80.68
31357;BME280;60001;48.404;11.738;2024-03-22T07:11:47;96759.81;;;9.72;80.68
31357;BME280;60001;48.404;11.738;2024-03-22T07:13:18;96757.66;;;9.69;80.76
31357;BME280;60001;48.404;11.738;2024-03-22T07:14:51;96763.50;;;9.71;79.93
31357;BME280;60001;48.404;11.738;2024-03-22T07:16:22;96762.13;;;9.68;80.73
31357;BME280;60001;48.404;11.738;2024-03-22T07:17:53;96741.59;;;9.70;80.90
31357;BME280;60001;48.404;11.738;2024-03-22T07:19:25;96757.72;;;9.85;81.98
31357;BME280;60001;48.404;11.738;2024-03-22T07:20:56;96768.47;;;9.96;81.57
31357;BME280;60001;48.404;11.738;2024-03-22T07:22:28;96766.47;;;10.03;80.60
31357;BME280;60001;48.404;11.738;2024-03-22T07:24:00;96762.09;;;10.08;80.60
31357;BME280;60001;48.404;11.738;2024-03-22T07:25:31;96750.03;;;10.12;80.94
31357;BME280;60001;48.404;11.738;2024-03-22T07:27:02;96750.69;;;10.20;81.24
31357;BME280;60001;48.404;11.738;2024-03-22T07:28:34;96750.00;;;10.24;81.32
31357;BME280;60001;48.404;11.738;2024-03-22T07:30:07;96745.53;;;10.25;81.50
31357;BME280;60001;48.404;11.738;2024-03-22T07:31:38;96744.88;;;10.34;80.88
31357;BME280;60001;48.404;11.738;2024-03-22T07:33:10;96748.09;;;10.36;80.03
31357;BME280;60001;48.404;11.738;2024-03-22T07:34:46;96737.38;;;10.43;79.20
31357;BME280;60001;48.404;11.738;2024-03-22T07:36:17;96743.13;;;10.40;79.66
31357;BME280;60001;48.404;11.738;2024-03-22T07:37:49;96740.78;;;10.27;79.25
31357;BME280;60001;48.404;11.738;2024-03-22T07:39:20;96739.84;;;10.33;79.41
31357;BME280;60001;48.404;11.738;2024-03-22T07:40:52;96740.19;;;10.36;78.67
31357;BME280;60001;48.404;11.738;2024-03-22T07:42:23;96741.13;;;10.30;78.55
31357;BME280;60001;48.404;11.738;2024-03-22T07:43:54;96743.63;;;10.37;78.55
31357;BME280;60001;48.404;11.738;2024-03-22T07:45:27;96748.16;;;10.25;78.47
31357;BME280;60001;48.404;11.738;2024-03-22T07:46:58;96744.09;;;10.34;78.59
31357;BME280;60001;48.404;11.738;2024-03-22T07:48:29;96741.13;;;10.30;78.55
31357;BME280;60001;48.404;11.738;2024-03-22T07:50:02;96746.41;;;10.30;78.51
31357;BME280;60001;48.404;11.738;2024-03-22T07:51:33;96739.94;;;10.38;78.23
31357;BME280;60001;48.404;11.738;2024-03-22T07:53:04;96732.41;;;10.47;77.83
31357;BME280;60001;48.404;11.738;2024-03-22T07:54:35;96731.22;;;10.54;78.05
31357;BME280;60001;48.404;11.738;2024-03-22T07:56:06;96731.84;;;10.61;78.65
31357;BME280;60001;48.404;11.738;2024-03-22T07:57:38;96739.69;;;10.73;78.59
31357;BME280;60001;48.404;11.738;2024-03-22T07:59:09;96734.72;;;10.77;78.23
31357;BME280;60001;48.404;11.738;2024-03-22T08:00:41;96736.00;;;10.74;77.24
31357;BME280;60001;48.404;11.738;2024-03-22T08:02:13;96738.72;;;10.79;77.15
31357;BME280;60001;48.404;11.738;2024-03-22T08:03:44;96732.50;;;10.85;76.92
31357;BME280;60001;48.404;11.738;2024-03-22T08:05:15;96734.50;;;10.78;76.89